Aérodrome :
LOGIN :

S'inscrire | Disclaimer

   EN    FR    IT 

 










Légende :    VFR   VFR Marginal   IFR   IFR Intensif   IFR Très Intensif
Visi : 
Plafond : 
>= 8 km
>= 3000ft
5 à 8 km
1000 à 3000 ft
1500m à 5 km
500 à 1000 ft
800 à 1500m
200 à 500 ft
< 800m
< 200 ft
Symboles :   Orages  Brouillard  Fortes neiges  Fortes précipitations  Vent > 20 kt
SIGMETs :   Divers  Orages  Givrage  Turbulence  Onde Orograph.  Cendres Volcan.






- Altitude de l'aérodrome : 1000 ft
- Code IATA : PEV


LHPP - Pécs Pogany

DERNIER METAR :
  • 181645Z 31003KT 1400 BR OVC004 M02/M02 Q1024

METARs EXPIRÉS :
  • 181615Z 31002KT 1400 BR OVC004 M02/M02 Q1025
  • 181545Z 00000KT 1400 BR OVC004 M02/M02 Q1024
  • 181515Z 00000KT 1400 BR OVC004 M02/M02 Q1024
  • 181445Z 35003KT 1400 BR OVC004 M02/M02 Q1024
  • 181415Z 03002KT 1400 BR OVC004 M02/M02 Q1024

TAF TAF LHPP
Valide du 18 à 15h jusqu'au 19 à 00h UTC


181415Z 1815/1824 VRB02KT 1500 BR OVC005
TEMPO 1815/1818 0800 FZDZ FZFG OVC002
BECMG 1818/1821 2000 -SN BKN004 OVC010



MET'MAP, la Météo Aéronautique d'un coup d'oeil ! - Copyright ORBIFLY Décembre 2007 - Disclaimer

ORBIFLY MET'MAP TEAM :

Programmation & Développement : Alexandra Zaïnal
Sur une idée originale de : Baudouin d'Aumeries
Assistance à la programmation : Marc-Olivier Méhu
Soutien technique & logistique : Manuel Goepfert

Contact : metmap@orbifly.com




SOURCES & CREDITS :

   NOAA